sensor_id;sensor_type;location;lat;lon;timestamp;pressure;altitude;pressure_sealevel;temperature;humidity
19526;BME280;9907;42.676;26.348;2023-05-22T00:01:05;98466.06;;;18.52;49.14
19526;BME280;9907;42.676;26.348;2023-05-22T00:03:31;98475.25;;;18.58;49.13
19526;BME280;9907;42.676;26.348;2023-05-22T00:05:57;98469.16;;;18.49;49.58
19526;BME280;9907;42.676;26.348;2023-05-22T00:08:27;98471.41;;;18.45;50.10
19526;BME280;9907;42.676;26.348;2023-05-22T00:10:53;98472.53;;;18.51;49.61
19526;BME280;9907;42.676;26.348;2023-05-22T00:13:19;98471.53;;;18.59;48.74
19526;BME280;9907;42.676;26.348;2023-05-22T00:15:45;98462.16;;;18.61;48.80
19526;BME280;9907;42.676;26.348;2023-05-22T00:18:10;98463.00;;;18.62;48.32
19526;BME280;9907;42.676;26.348;2023-05-22T00:20:38;98454.25;;;18.66;48.95
19526;BME280;9907;42.676;26.348;2023-05-22T00:23:05;98457.19;;;18.65;48.58
19526;BME280;9907;42.676;26.348;2023-05-22T00:25:35;98453.81;;;18.63;49.07
19526;BME280;9907;42.676;26.348;2023-05-22T00:28:00;98460.25;;;18.55;49.69
19526;BME280;9907;42.676;26.348;2023-05-22T00:30:26;98463.41;;;18.59;49.16
19526;BME280;9907;42.676;26.348;2023-05-22T00:32:51;98445.50;;;18.58;49.69
19526;BME280;9907;42.676;26.348;2023-05-22T00:35:17;98448.22;;;18.58;48.93
19526;BME280;9907;42.676;26.348;2023-05-22T00:37:42;98448.22;;;18.58;49.69
19526;BME280;9907;42.676;26.348;2023-05-22T00:40:11;98426.34;;;18.59;49.21
19526;BME280;9907;42.676;26.348;2023-05-22T00:42:37;98444.69;;;18.64;48.49
19526;BME280;9907;42.676;26.348;2023-05-22T00:45:04;98439.50;;;18.62;49.21
19526;BME280;9907;42.676;26.348;2023-05-22T00:47:31;98438.00;;;18.60;48.76
19526;BME280;9907;42.676;26.348;2023-05-22T00:49:57;98439.69;;;18.61;48.56
19526;BME280;9907;42.676;26.348;2023-05-22T00:52:23;98449.25;;;18.57;49.59
19526;BME280;9907;42.676;26.348;2023-05-22T00:54:49;98428.88;;;18.61;49.55
19526;BME280;9907;42.676;26.348;2023-05-22T00:57:18;98445.09;;;18.61;49.41
19526;BME280;9907;42.676;26.348;2023-05-22T00:59:44;98436.16;;;18.67;49.30
19526;BME280;9907;42.676;26.348;2023-05-22T01:02:11;98435.97;;;18.68;49.51
19526;BME280;9907;42.676;26.348;2023-05-22T01:04:37;98433.47;;;18.67;49.00
19526;BME280;9907;42.676;26.348;2023-05-22T01:07:03;98435.53;;;18.65;50.01
19526;BME280;9907;42.676;26.348;2023-05-22T01:09:30;98436.38;;;18.65;49.75
19526;BME280;9907;42.676;26.348;2023-05-22T01:14:49;98435.31;;;18.66;49.91
19526;BME280;9907;42.676;26.348;2023-05-22T01:17:42;98434.09;;;18.69;48.92
19526;BME280;9907;42.676;26.348;2023-05-22T01:20:27;98425.16;;;18.75;49.27
19526;BME280;9907;42.676;26.348;2023-05-22T01:23:08;98442.66;;;18.79;49.32
19526;BME280;9907;42.676;26.348;2023-05-22T01:31:16;98421.44;;;18.82;48.61
19526;BME280;9907;42.676;26.348;2023-05-22T01:33:47;98427.25;;;18.79;48.58
19526;BME280;9907;42.676;26.348;2023-05-22T01:36:18;98415.19;;;18.82;49.00
19526;BME280;9907;42.676;26.348;2023-05-22T01:38:47;98415.59;;;18.85;48.91
19526;BME280;9907;42.676;26.348;2023-05-22T01:41:13;98427.28;;;18.86;48.93
19526;BME280;9907;42.676;26.348;2023-05-22T01:43:39;98418.91;;;18.81;48.52
19526;BME280;9907;42.676;26.348;2023-05-22T01:46:05;98417.91;;;18.82;48.92
19526;BME280;9907;42.676;26.348;2023-05-22T01:48:31;98422.28;;;18.83;49.32
19526;BME280;9907;42.676;26.348;2023-05-22T01:51:00;98418.13;;;18.87;49.05
19526;BME280;9907;42.676;26.348;2023-05-22T01:53:56;98420.19;;;18.85;49.61
19526;BME280;9907;42.676;26.348;2023-05-22T01:56:38;98428.34;;;18.91;49.52
19526;BME280;9907;42.676;26.348;2023-05-22T01:59:14;98428.34;;;18.91;49.27
19526;BME280;9907;42.676;26.348;2023-05-22T02:01:44;98418.97;;;18.87;49.49
19526;BME280;9907;42.676;26.348;2023-05-22T02:04:12;98423.97;;;18.90;49.67
19526;BME280;9907;42.676;26.348;2023-05-22T02:06:40;98437.69;;;18.89;50.19
19526;BME280;9907;42.676;26.348;2023-05-22T02:09:05;98424.56;;;18.86;50.77
19526;BME280;9907;42.676;26.348;2023-05-22T02:11:32;98445.59;;;18.84;51.17
19526;BME280;9907;42.676;26.348;2023-05-22T02:13:59;98453.06;;;18.82;51.08
19526;BME280;9907;42.676;26.348;2023-05-22T02:16:26;98431.00;;;18.85;51.76
19526;BME280;9907;42.676;26.348;2023-05-22T02:18:58;98443.09;;;18.82;51.43
19526;BME280;9907;42.676;26.348;2023-05-22T02:21:31;98428.72;;;18.82;52.54
19526;BME280;9907;42.676;26.348;2023-05-22T02:23:56;98436.84;;;18.82;52.31
19526;BME280;9907;42.676;26.348;2023-05-22T02:26:22;98441.03;;;18.84;53.41
19526;BME280;9907;42.676;26.348;2023-05-22T02:28:47;98439.78;;;18.87;53.63
19526;BME280;9907;42.676;26.348;2023-05-22T02:31:13;98438.50;;;18.83;53.93
19526;BME280;9907;42.676;26.348;2023-05-22T02:33:39;98437.25;;;18.79;53.59
19526;BME280;9907;42.676;26.348;2023-05-22T02:36:05;98448.25;;;18.77;54.22
19526;BME280;9907;42.676;26.348;2023-05-22T02:38:35;98444.75;;;18.77;54.71
19526;BME280;9907;42.676;26.348;2023-05-22T02:41:01;98436.41;;;18.78;54.70
19526;BME280;9907;42.676;26.348;2023-05-22T02:43:26;98440.56;;;18.81;54.55
19526;BME280;9907;42.676;26.348;2023-05-22T02:45:52;98430.16;;;18.78;54.14
19526;BME280;9907;42.676;26.348;2023-05-22T02:48:17;98435.97;;;18.75;55.44
19526;BME280;9907;42.676;26.348;2023-05-22T02:50:43;98439.09;;;18.72;55.47
19526;BME280;9907;42.676;26.348;2023-05-22T02:53:08;98434.53;;;18.72;55.32
19526;BME280;9907;42.676;26.348;2023-05-22T02:55:34;98442.41;;;18.74;55.76
19526;BME280;9907;42.676;26.348;2023-05-22T02:58:01;98435.38;;;18.73;56.28
19526;BME280;9907;42.676;26.348;2023-05-22T03:00:27;98433.09;;;18.76;56.12
19526;BME280;9907;42.676;26.348;2023-05-22T03:02:52;98433.50;;;18.73;55.98
19526;BME280;9907;42.676;26.348;2023-05-22T03:05:17;98428.09;;;18.73;55.86
19526;BME280;9907;42.676;26.348;2023-05-22T03:07:43;98438.25;;;18.71;56.25
19526;BME280;9907;42.676;26.348;2023-05-22T03:10:09;98438.47;;;18.70;56.41
19526;BME280;9907;42.676;26.348;2023-05-22T03:12:34;98447.22;;;18.72;56.14
19526;BME280;9907;42.676;26.348;2023-05-22T03:15:00;98443.91;;;18.70;56.36
19526;BME280;9907;42.676;26.348;2023-05-22T03:17:25;98451.78;;;18.71;56.84
19526;BME280;9907;42.676;26.348;2023-05-22T03:19:51;98457.00;;;18.73;57.02
19526;BME280;9907;42.676;26.348;2023-05-22T03:22:16;98473.84;;;18.75;56.35
19526;BME280;9907;42.676;26.348;2023-05-22T03:24:42;98466.38;;;18.77;57.33
19526;BME280;9907;42.676;26.348;2023-05-22T03:27:08;98473.03;;;18.81;57.07
19526;BME280;9907;42.676;26.348;2023-05-22T03:29:33;98466.19;;;18.85;57.29
19526;BME280;9907;42.676;26.348;2023-05-22T03:32:00;98467.25;;;18.84;56.79
19526;BME280;9907;42.676;26.348;2023-05-22T03:34:27;98481.59;;;18.84;56.57
19526;BME280;9907;42.676;26.348;2023-05-22T03:36:54;98472.84;;;18.82;57.52
19526;BME280;9907;42.676;26.348;2023-05-22T03:39:22;98476.81;;;18.80;57.00
19526;BME280;9907;42.676;26.348;2023-05-22T03:41:47;98487.19;;;18.76;57.92
19526;BME280;9907;42.676;26.348;2023-05-22T03:44:13;98480.94;;;18.76;58.19
19526;BME280;9907;42.676;26.348;2023-05-22T03:46:38;98484.06;;;18.79;58.10
19526;BME280;9907;42.676;26.348;2023-05-22T03:49:03;98489.50;;;18.79;57.75
19526;BME280;9907;42.676;26.348;2023-05-22T03:51:29;98476.38;;;18.76;58.44
19526;BME280;9907;42.676;26.348;2023-05-22T03:53:56;98490.91;;;18.69;58.78
19526;BME280;9907;42.676;26.348;2023-05-22T03:56:21;98486.72;;;18.66;58.51
19526;BME280;9907;42.676;26.348;2023-05-22T03:58:47;98490.50;;;18.72;58.62
19526;BME280;9907;42.676;26.348;2023-05-22T04:01:12;98482.81;;;18.82;59.04
19526;BME280;9907;42.676;26.348;2023-05-22T04:03:38;98483.91;;;18.87;58.87
19526;BME280;9907;42.676;26.348;2023-05-22T04:06:03;98499.31;;;18.93;58.70
19526;BME280;9907;42.676;26.348;2023-05-22T04:08:30;98498.09;;;19.03;58.07
19526;BME280;9907;42.676;26.348;2023-05-22T04:10:55;98488.31;;;19.08;57.59
19526;BME280;9907;42.676;26.348;2023-05-22T04:13:21;98492.09;;;19.20;57.53
19526;BME280;9907;42.676;26.348;2023-05-22T04:15:47;98486.09;;;19.31;58.00
19526;BME280;9907;42.676;26.348;2023-05-22T04:18:14;98489.44;;;19.40;58.20
19526;BME280;9907;42.676;26.348;2023-05-22T04:20:40;98488.66;;;19.66;57.47
19526;BME280;9907;42.676;26.348;2023-05-22T04:23:07;98487.81;;;19.91;56.86
19526;BME280;9907;42.676;26.348;2023-05-22T04:25:32;98488.81;;;20.17;56.38
19526;BME280;9907;42.676;26.348;2023-05-22T04:28:02;98497.72;;;20.44;55.67
19526;BME280;9907;42.676;26.348;2023-05-22T04:30:29;98494.94;;;20.63;54.77
19526;BME280;9907;42.676;26.348;2023-05-22T04:32:54;98509.97;;;20.72;53.96
19526;BME280;9907;42.676;26.348;2023-05-22T04:35:21;98499.31;;;20.71;53.89
19526;BME280;9907;42.676;26.348;2023-05-22T04:37:47;98501.16;;;20.77;53.62
19526;BME280;9907;42.676;26.348;2023-05-22T04:40:13;98504.34;;;20.67;54.41
19526;BME280;9907;42.676;26.348;2023-05-22T04:42:40;98498.78;;;20.94;53.28
19526;BME280;9907;42.676;26.348;2023-05-22T04:45:07;98498.72;;;21.13;52.83
19526;BME280;9907;42.676;26.348;2023-05-22T04:47:32;98511.53;;;21.38;52.62
19526;BME280;9907;42.676;26.348;2023-05-22T04:49:58;98503.13;;;21.46;51.47
19526;BME280;9907;42.676;26.348;2023-05-22T04:52:25;98507.13;;;21.43;51.89
19526;BME280;9907;42.676;26.348;2023-05-22T04:54:50;98496.25;;;21.68;51.07
19526;BME280;9907;42.676;26.348;2023-05-22T04:57:17;98501.75;;;21.86;49.89
19526;BME280;9907;42.676;26.348;2023-05-22T04:59:43;98508.09;;;21.80;49.69
19526;BME280;9907;42.676;26.348;2023-05-22T05:02:10;98507.78;;;21.95;49.64
19526;BME280;9907;42.676;26.348;2023-05-22T05:04:35;98513.31;;;22.06;49.33
19526;BME280;9907;42.676;26.348;2023-05-22T05:07:01;98512.00;;;21.84;48.83
19526;BME280;9907;42.676;26.348;2023-05-22T05:09:27;98519.06;;;21.67;49.61
19526;BME280;9907;42.676;26.348;2023-05-22T05:11:53;98508.59;;;21.39;49.93
19526;BME280;9907;42.676;26.348;2023-05-22T05:14:19;98516.84;;;21.19;50.59
19526;BME280;9907;42.676;26.348;2023-05-22T05:16:44;98516.06;;;21.12;51.43
19526;BME280;9907;42.676;26.348;2023-05-22T05:19:11;98519.09;;;21.60;51.53
19526;BME280;9907;42.676;26.348;2023-05-22T05:21:37;98521.94;;;21.72;51.55
19526;BME280;9907;42.676;26.348;2023-05-22T05:24:03;98511.69;;;21.74;49.83
19526;BME280;9907;42.676;26.348;2023-05-22T05:26:28;98519.81;;;22.05;49.57
19526;BME280;9907;42.676;26.348;2023-05-22T05:28:54;98512.84;;;22.34;49.55
19526;BME280;9907;42.676;26.348;2023-05-22T05:31:20;98511.09;;;22.40;49.56
19526;BME280;9907;42.676;26.348;2023-05-22T05:33:46;98509.53;;;22.50;49.68
19526;BME280;9907;42.676;26.348;2023-05-22T05:36:13;98504.75;;;22.64;49.30
19526;BME280;9907;42.676;26.348;2023-05-22T05:38:39;98513.41;;;22.79;48.36
19526;BME280;9907;42.676;26.348;2023-05-22T05:41:04;98512.94;;;23.00;48.04
19526;BME280;9907;42.676;26.348;2023-05-22T05:43:30;98500.56;;;23.16;47.19
19526;BME280;9907;42.676;26.348;2023-05-22T05:45:55;98511.00;;;23.19;47.00
19526;BME280;9907;42.676;26.348;2023-05-22T05:48:21;98505.88;;;23.11;46.91
19526;BME280;9907;42.676;26.348;2023-05-22T05:50:47;98504.41;;;23.26;45.60
19526;BME280;9907;42.676;26.348;2023-05-22T05:53:12;98508.06;;;23.20;46.25
19526;BME280;9907;42.676;26.348;2023-05-22T05:55:38;98518.66;;;23.40;45.31
19526;BME280;9907;42.676;26.348;2023-05-22T05:58:03;98521.34;;;23.58;44.51
19526;BME280;9907;42.676;26.348;2023-05-22T06:00:29;98517.06;;;23.51;43.64
19526;BME280;9907;42.676;26.348;2023-05-22T06:02:54;98517.34;;;23.61;43.98
19526;BME280;9907;42.676;26.348;2023-05-22T06:05:21;98522.44;;;23.69;43.50
19526;BME280;9907;42.676;26.348;2023-05-22T06:07:46;98519.41;;;24.00;43.10
19526;BME280;9907;42.676;26.348;2023-05-22T06:10:13;98520.72;;;23.98;42.67
19526;BME280;9907;42.676;26.348;2023-05-22T06:12:38;98526.84;;;24.35;43.41
19526;BME280;9907;42.676;26.348;2023-05-22T06:15:04;98523.50;;;24.44;43.02
19526;BME280;9907;42.676;26.348;2023-05-22T06:17:31;98524.09;;;24.23;43.14
19526;BME280;9907;42.676;26.348;2023-05-22T06:19:57;98533.69;;;24.14;41.88
19526;BME280;9907;42.676;26.348;2023-05-22T06:22:24;98534.22;;;23.81;43.07
19526;BME280;9907;42.676;26.348;2023-05-22T06:24:50;98537.19;;;23.91;42.15
19526;BME280;9907;42.676;26.348;2023-05-22T06:27:19;98529.50;;;24.00;42.21
19526;BME280;9907;42.676;26.348;2023-05-22T06:29:47;98534.84;;;24.06;43.66
19526;BME280;9907;42.676;26.348;2023-05-22T06:32:12;98539.16;;;24.26;43.67
19526;BME280;9907;42.676;26.348;2023-05-22T06:34:38;98528.94;;;24.33;43.03
19526;BME280;9907;42.676;26.348;2023-05-22T06:37:05;98534.81;;;23.83;41.83
19526;BME280;9907;42.676;26.348;2023-05-22T06:39:30;98526.06;;;24.04;42.76
19526;BME280;9907;42.676;26.348;2023-05-22T06:41:56;98535.38;;;24.27;43.23
19526;BME280;9907;42.676;26.348;2023-05-22T06:44:21;98520.03;;;24.14;41.77
19526;BME280;9907;42.676;26.348;2023-05-22T06:46:47;98527.75;;;24.29;40.72
19526;BME280;9907;42.676;26.348;2023-05-22T06:49:12;98522.06;;;24.30;40.86
19526;BME280;9907;42.676;26.348;2023-05-22T06:51:37;98528.81;;;24.51;42.05
19526;BME280;9907;42.676;26.348;2023-05-22T06:54:03;98533.34;;;24.45;40.26
19526;BME280;9907;42.676;26.348;2023-05-22T06:56:31;98527.19;;;24.50;40.71
19526;BME280;9907;42.676;26.348;2023-05-22T06:58:57;98522.13;;;24.93;39.99
19526;BME280;9907;42.676;26.348;2023-05-22T07:01:23;98529.88;;;24.85;39.57
19526;BME280;9907;42.676;26.348;2023-05-22T07:03:48;98535.03;;;25.09;38.25
19526;BME280;9907;42.676;26.348;2023-05-22T07:06:14;98535.19;;;24.91;38.17
19526;BME280;9907;42.676;26.348;2023-05-22T07:08:39;98529.38;;;24.76;37.96
19526;BME280;9907;42.676;26.348;2023-05-22T07:11:05;98526.44;;;25.17;36.59
19526;BME280;9907;42.676;26.348;2023-05-22T07:13:31;98531.47;;;25.37;37.02
19526;BME280;9907;42.676;26.348;2023-05-22T07:15:57;98531.22;;;25.39;36.24
19526;BME280;9907;42.676;26.348;2023-05-22T07:18:22;98527.50;;;25.56;36.45
19526;BME280;9907;42.676;26.348;2023-05-22T07:20:48;98533.22;;;25.55;36.17
19526;BME280;9907;42.676;26.348;2023-05-22T07:23:13;98524.69;;;25.40;36.73
19526;BME280;9907;42.676;26.348;2023-05-22T07:25:39;98520.13;;;25.17;36.59
19526;BME280;9907;42.676;26.348;2023-05-22T07:28:04;98524.69;;;25.11;37.28
19526;BME280;9907;42.676;26.348;2023-05-22T07:30:35;98522.34;;;24.80;37.61
19526;BME280;9907;42.676;26.348;2023-05-22T07:33:01;98532.91;;;25.00;37.42
19526;BME280;9907;42.676;26.348;2023-05-22T07:35:27;98529.16;;;24.78;38.60
19526;BME280;9907;42.676;26.348;2023-05-22T07:37:52;98522.50;;;24.73;36.95
19526;BME280;9907;42.676;26.348;2023-05-22T07:40:18;98519.78;;;24.85;37.85
19526;BME280;9907;42.676;26.348;2023-05-22T07:42:43;98525.56;;;25.29;36.76
19526;BME280;9907;42.676;26.348;2023-05-22T07:45:09;98523.28;;;25.09;37.00
19526;BME280;9907;42.676;26.348;2023-05-22T07:47:35;98524.00;;;25.04;36.89
19526;BME280;9907;42.676;26.348;2023-05-22T07:50:00;98535.25;;;25.19;37.37
19526;BME280;9907;42.676;26.348;2023-05-22T07:52:29;98518.03;;;25.36;37.88
19526;BME280;9907;42.676;26.348;2023-05-22T07:54:56;98514.75;;;25.50;36.72
19526;BME280;9907;42.676;26.348;2023-05-22T07:57:21;98518.50;;;25.89;36.82
19526;BME280;9907;42.676;26.348;2023-05-22T07:59:47;98514.44;;;25.92;36.33
19526;BME280;9907;42.676;26.348;2023-05-22T08:02:13;98522.31;;;25.72;36.74
19526;BME280;9907;42.676;26.348;2023-05-22T08:04:39;98510.28;;;25.89;37.98
19526;BME280;9907;42.676;26.348;2023-05-22T08:07:05;98518.75;;;25.88;37.13
19526;BME280;9907;42.676;26.348;2023-05-22T08:09:30;98519.31;;;25.73;38.12
19526;BME280;9907;42.676;26.348;2023-05-22T08:11:56;98512.69;;;26.02;38.41
19526;BME280;9907;42.676;26.348;2023-05-22T08:14:22;98511.13;;;26.06;37.68
19526;BME280;9907;42.676;26.348;2023-05-22T08:16:47;98511.72;;;26.08;37.32
19526;BME280;9907;42.676;26.348;2023-05-22T08:19:13;98521.63;;;25.98;38.26
19526;BME280;9907;42.676;26.348;2023-05-22T08:21:39;98518.47;;;25.56;38.77
19526;BME280;9907;42.676;26.348;2023-05-22T08:24:05;98520.81;;;25.24;39.14
19526;BME280;9907;42.676;26.348;2023-05-22T08:26:31;98512.84;;;25.62;39.52
19526;BME280;9907;42.676;26.348;2023-05-22T08:28:58;98519.00;;;26.03;38.27
19526;BME280;9907;42.676;26.348;2023-05-22T08:31:24;98530.56;;;25.60;39.00
19526;BME280;9907;42.676;26.348;2023-05-22T08:33:49;98528.91;;;25.31;37.62
19526;BME280;9907;42.676;26.348;2023-05-22T08:36:15;98530.16;;;25.40;37.56
19526;BME280;9907;42.676;26.348;2023-05-22T08:38:41;98521.34;;;25.49;37.79
19526;BME280;9907;42.676;26.348;2023-05-22T08:41:07;98531.91;;;25.17;38.10
19526;BME280;9907;42.676;26.348;2023-05-22T08:43:32;98526.84;;;25.38;37.20
19526;BME280;9907;42.676;26.348;2023-05-22T08:46:04;98527.25;;;25.30;36.66
19526;BME280;9907;42.676;26.348;2023-05-22T08:48:31;98516.41;;;25.35;37.67
19526;BME280;9907;42.676;26.348;2023-05-22T08:51:00;98506.31;;;25.80;37.99
19526;BME280;9907;42.676;26.348;2023-05-22T08:53:27;98514.91;;;25.72;37.17
19526;BME280;9907;42.676;26.348;2023-05-22T08:55:53;98510.22;;;26.01;36.85
19526;BME280;9907;42.676;26.348;2023-05-22T08:58:20;98520.66;;;26.04;36.75
19526;BME280;9907;42.676;26.348;2023-05-22T09:00:46;98529.28;;;25.96;35.50
19526;BME280;9907;42.676;26.348;2023-05-22T09:03:12;98523.94;;;25.56;35.64
19526;BME280;9907;42.676;26.348;2023-05-22T09:05:39;98510.56;;;26.04;35.33
19526;BME280;9907;42.676;26.348;2023-05-22T09:08:06;98514.84;;;26.00;35.69
19526;BME280;9907;42.676;26.348;2023-05-22T09:10:34;98508.56;;;26.00;35.19
19526;BME280;9907;42.676;26.348;2023-05-22T09:15:29;98502.41;;;26.09;34.75
19526;BME280;9907;42.676;26.348;2023-05-22T09:17:55;98508.38;;;25.73;35.80
19526;BME280;9907;42.676;26.348;2023-05-22T09:20:21;98504.41;;;25.81;35.96
19526;BME280;9907;42.676;26.348;2023-05-22T09:22:46;98499.94;;;26.25;35.22
19526;BME280;9907;42.676;26.348;2023-05-22T09:25:16;98509.44;;;26.39;35.34
19526;BME280;9907;42.676;26.348;2023-05-22T09:27:52;98494.03;;;26.33;36.04
19526;BME280;9907;42.676;26.348;2023-05-22T09:30:18;98487.00;;;25.70;36.42
19526;BME280;9907;42.676;26.348;2023-05-22T09:32:44;98501.13;;;25.22;37.38
19526;BME280;9907;42.676;26.348;2023-05-22T09:35:11;98501.53;;;25.02;37.50
19526;BME280;9907;42.676;26.348;2023-05-22T09:37:37;98500.50;;;24.92;38.54
19526;BME280;9907;42.676;26.348;2023-05-22T09:40:12;98493.69;;;25.06;37.79
19526;BME280;9907;42.676;26.348;2023-05-22T09:42:42;98487.81;;;24.97;39.07
19526;BME280;9907;42.676;26.348;2023-05-22T09:45:10;98482.66;;;24.61;38.63
19526;BME280;9907;42.676;26.348;2023-05-22T09:47:35;98494.19;;;24.40;38.67
19526;BME280;9907;42.676;26.348;2023-05-22T09:50:02;98469.56;;;24.63;38.75
19526;BME280;9907;42.676;26.348;2023-05-22T09:52:35;98470.75;;;24.67;38.85
19526;BME280;9907;42.676;26.348;2023-05-22T09:55:03;98488.13;;;24.49;39.52
19526;BME280;9907;42.676;26.348;2023-05-22T09:57:31;98483.50;;;24.50;40.35
19526;BME280;9907;42.676;26.348;2023-05-22T10:00:02;98482.84;;;24.71;39.72
19526;BME280;9907;42.676;26.348;2023-05-22T10:02:34;98500.16;;;24.88;39.17
19526;BME280;9907;42.676;26.348;2023-05-22T10:05:04;98494.34;;;24.73;39.44
19526;BME280;9907;42.676;26.348;2023-05-22T10:07:45;98494.34;;;24.85;39.12
19526;BME280;9907;42.676;26.348;2023-05-22T10:10:15;98478.56;;;24.75;39.19
19526;BME280;9907;42.676;26.348;2023-05-22T10:12:45;98492.06;;;24.42;40.27
19526;BME280;9907;42.676;26.348;2023-05-22T10:15:12;98504.16;;;24.57;40.37
19526;BME280;9907;42.676;26.348;2023-05-22T10:17:38;98488.31;;;24.71;41.05
19526;BME280;9907;42.676;26.348;2023-05-22T10:20:06;98516.00;;;24.40;42.14
19526;BME280;9907;42.676;26.348;2023-05-22T10:22:36;98499.34;;;23.95;43.82
19526;BME280;9907;42.676;26.348;2023-05-22T10:25:03;98497.91;;;23.69;43.43
19526;BME280;9907;42.676;26.348;2023-05-22T10:27:29;98495.97;;;23.58;43.58
19526;BME280;9907;42.676;26.348;2023-05-22T10:30:00;98490.75;;;23.45;44.80
19526;BME280;9907;42.676;26.348;2023-05-22T10:32:37;98511.00;;;23.19;44.71
19526;BME280;9907;42.676;26.348;2023-05-22T10:35:35;98518.94;;;22.91;48.96
19526;BME280;9907;42.676;26.348;2023-05-22T10:40:56;98500.94;;;22.71;50.42
19526;BME280;9907;42.676;26.348;2023-05-22T10:43:22;98499.34;;;22.82;50.78
19526;BME280;9907;42.676;26.348;2023-05-22T10:45:48;98481.91;;;23.01;51.00
19526;BME280;9907;42.676;26.348;2023-05-22T10:48:13;98480.50;;;23.10;50.89
19526;BME280;9907;42.676;26.348;2023-05-22T10:50:40;98483.38;;;23.15;51.58
19526;BME280;9907;42.676;26.348;2023-05-22T10:53:24;98477.06;;;23.33;50.44
19526;BME280;9907;42.676;26.348;2023-05-22T10:55:54;98460.44;;;23.53;49.58
19526;BME280;9907;42.676;26.348;2023-05-22T10:58:32;98454.88;;;23.29;54.24
19526;BME280;9907;42.676;26.348;2023-05-22T11:03:54;98457.00;;;23.69;54.41
19526;BME280;9907;42.676;26.348;2023-05-22T11:06:40;98455.59;;;23.78;50.78
19526;BME280;9907;42.676;26.348;2023-05-22T11:09:27;98451.34;;;23.82;49.56
19526;BME280;9907;42.676;26.348;2023-05-22T11:12:19;98451.56;;;23.69;48.39
19526;BME280;9907;42.676;26.348;2023-05-22T11:17:28;98508.41;;;22.94;46.63
19526;BME280;9907;42.676;26.348;2023-05-22T11:20:10;98488.63;;;21.83;51.38
19526;BME280;9907;42.676;26.348;2023-05-22T11:22:39;98478.34;;;21.85;52.14
19526;BME280;9907;42.676;26.348;2023-05-22T11:25:09;98471.22;;;21.91;53.04
19526;BME280;9907;42.676;26.348;2023-05-22T11:27:36;98466.63;;;21.91;53.76
19526;BME280;9907;42.676;26.348;2023-05-22T11:30:03;98441.63;;;22.19;53.08
19526;BME280;9907;42.676;26.348;2023-05-22T11:32:29;98446.63;;;22.40;52.47
19526;BME280;9907;42.676;26.348;2023-05-22T11:34:55;98443.16;;;22.33;52.81
19526;BME280;9907;42.676;26.348;2023-05-22T11:37:21;98434.31;;;22.38;52.02
19526;BME280;9907;42.676;26.348;2023-05-22T11:39:55;98427.38;;;22.42;50.74
19526;BME280;9907;42.676;26.348;2023-05-22T11:42:21;98398.16;;;22.67;49.00
19526;BME280;9907;42.676;26.348;2023-05-22T11:44:46;98406.94;;;22.69;48.50
19526;BME280;9907;42.676;26.348;2023-05-22T11:47:12;98410.44;;;22.76;48.74
19526;BME280;9907;42.676;26.348;2023-05-22T11:49:40;98413.06;;;22.83;47.98
19526;BME280;9907;42.676;26.348;2023-05-22T11:52:06;98407.66;;;22.94;47.91
19526;BME280;9907;42.676;26.348;2023-05-22T11:54:32;98425.03;;;22.93;46.69
19526;BME280;9907;42.676;26.348;2023-05-22T11:57:02;98423.63;;;23.02;47.29
19526;BME280;9907;42.676;26.348;2023-05-22T11:59:28;98424.63;;;23.08;47.08
19526;BME280;9907;42.676;26.348;2023-05-22T12:01:53;98417.53;;;23.18;46.95
19526;BME280;9907;42.676;26.348;2023-05-22T12:04:19;98431.78;;;23.20;46.55
19526;BME280;9907;42.676;26.348;2023-05-22T12:06:44;98426.66;;;23.12;46.81
19526;BME280;9907;42.676;26.348;2023-05-22T12:09:10;98434.34;;;23.15;47.82
19526;BME280;9907;42.676;26.348;2023-05-22T12:11:36;98443.78;;;23.01;47.69
19526;BME280;9907;42.676;26.348;2023-05-22T12:14:03;98443.09;;;23.06;47.29
19526;BME280;9907;42.676;26.348;2023-05-22T12:16:33;98439.19;;;23.13;47.59
19526;BME280;9907;42.676;26.348;2023-05-22T12:19:03;98438.09;;;23.03;48.82
19526;BME280;9907;42.676;26.348;2023-05-22T12:21:30;98442.69;;;22.91;49.42
19526;BME280;9907;42.676;26.348;2023-05-22T12:23:56;98446.41;;;22.78;49.62
19526;BME280;9907;42.676;26.348;2023-05-22T12:26:22;98440.28;;;22.83;48.36
19526;BME280;9907;42.676;26.348;2023-05-22T12:28:51;98453.59;;;23.02;48.03
19526;BME280;9907;42.676;26.348;2023-05-22T12:31:20;98455.69;;;22.89;48.90
19526;BME280;9907;42.676;26.348;2023-05-22T12:33:53;98478.13;;;22.48;51.43
19526;BME280;9907;42.676;26.348;2023-05-22T12:36:19;98480.81;;;21.62;55.90
19526;BME280;9907;42.676;26.348;2023-05-22T12:38:45;98482.09;;;21.34;54.74
19526;BME280;9907;42.676;26.348;2023-05-22T12:41:10;98475.31;;;21.44;52.91
19526;BME280;9907;42.676;26.348;2023-05-22T12:43:36;98469.47;;;21.09;55.24
19526;BME280;9907;42.676;26.348;2023-05-22T12:46:01;98462.34;;;21.14;57.19
19526;BME280;9907;42.676;26.348;2023-05-22T12:48:27;98450.97;;;21.30;58.11
19526;BME280;9907;42.676;26.348;2023-05-22T12:50:53;98446.31;;;21.38;59.65
19526;BME280;9907;42.676;26.348;2023-05-22T12:53:18;98447.41;;;20.99;62.45
19526;BME280;9907;42.676;26.348;2023-05-22T12:55:44;98448.78;;;21.14;62.62
19526;BME280;9907;42.676;26.348;2023-05-22T12:58:09;98443.38;;;21.08;63.42
19526;BME280;9907;42.676;26.348;2023-05-22T13:00:35;98443.63;;;21.38;63.19
19526;BME280;9907;42.676;26.348;2023-05-22T13:03:01;98456.53;;;21.11;65.02
19526;BME280;9907;42.676;26.348;2023-05-22T13:05:27;98463.59;;;21.18;65.96
19526;BME280;9907;42.676;26.348;2023-05-22T13:07:52;98457.38;;;21.11;66.54
19526;BME280;9907;42.676;26.348;2023-05-22T13:10:18;98451.22;;;20.91;67.95
19526;BME280;9907;42.676;26.348;2023-05-22T13:12:44;98449.81;;;21.20;67.14
19526;BME280;9907;42.676;26.348;2023-05-22T13:15:11;98445.03;;;21.15;66.25
19526;BME280;9907;42.676;26.348;2023-05-22T13:17:39;98433.56;;;21.07;67.10
19526;BME280;9907;42.676;26.348;2023-05-22T13:20:05;98430.41;;;21.16;66.81